createdAt,value
2022-11-09T00:01:31.396Z,99038.63
2022-11-09T00:04:00.598Z,99037.75
2022-11-09T00:06:28.134Z,99032.59
2022-11-09T00:08:55.341Z,99026.56
2022-11-09T00:11:22.425Z,99026.56
2022-11-09T00:13:49.088Z,99027.41
2022-11-09T00:16:18.192Z,99029.13
2022-11-09T00:18:47.534Z,99028.25
2022-11-09T00:21:20.064Z,99023.06
2022-11-09T00:23:47.374Z,99034.25
2022-11-09T00:26:15.945Z,99042.88
2022-11-09T00:28:42.526Z,99040.31
2022-11-09T00:31:12.378Z,99032.59
2022-11-09T00:33:39.498Z,99026.56
2022-11-09T00:36:08.087Z,99023.97
2022-11-09T00:38:35.548Z,99030.00
2022-11-09T00:41:03.741Z,99029.13
2022-11-09T00:43:30.370Z,99017.94
2022-11-09T00:45:57.150Z,99019.66
2022-11-09T00:48:24.233Z,99035.13
2022-11-09T00:50:52.386Z,99031.72
2022-11-09T00:53:20.051Z,99027.44
2022-11-09T00:56:04.679Z,99017.94
2022-11-09T00:58:34.817Z,99029.13
2022-11-09T01:01:08.016Z,99033.41
2022-11-09T01:03:34.730Z,99033.41
2022-11-09T01:06:01.252Z,99030.88
2022-11-09T01:08:27.785Z,99037.75
2022-11-09T01:10:54.377Z,99025.72
2022-11-09T01:13:21.118Z,99018.84
2022-11-09T01:15:53.210Z,99019.66
2022-11-09T01:18:21.460Z,99023.16
2022-11-09T01:20:49.629Z,99021.41
2022-11-09T01:23:18.578Z,99015.41
2022-11-09T01:25:45.441Z,99022.28
2022-11-09T01:28:12.476Z,99024.88
2022-11-09T01:30:41.766Z,99017.16
2022-11-09T01:33:11.799Z,99014.56
2022-11-09T01:35:40.094Z,99016.28
2022-11-09T01:38:07.840Z,99010.25
2022-11-09T01:40:35.900Z,99006.84
2022-11-09T01:43:27.157Z,99010.25
2022-11-09T01:45:59.930Z,99000.81
2022-11-09T01:48:40.139Z,99002.53
2022-11-09T01:51:16.372Z,98999.97
2022-11-09T01:53:48.737Z,98996.53
2022-11-09T01:56:15.663Z,98993.94
2022-11-09T01:58:48.941Z,98999.09
2022-11-09T02:01:17.713Z,98999.94
2022-11-09T02:03:50.851Z,98993.03
2022-11-09T02:06:19.450Z,98999.09
2022-11-09T02:08:47.827Z,98996.53
2022-11-09T02:11:17.861Z,98997.38
2022-11-09T02:13:53.207Z,98997.38
2022-11-09T02:16:19.805Z,98995.66
2022-11-09T02:18:54.595Z,98994.81
2022-11-09T02:21:23.544Z,98994.81
2022-11-09T02:23:51.333Z,98995.66
2022-11-09T02:26:30.093Z,98990.50
2022-11-09T02:28:58.493Z,98985.34
2022-11-09T02:31:31.082Z,98975.88
2022-11-09T02:34:06.543Z,98975.88
2022-11-09T02:36:33.956Z,98975.03
2022-11-09T02:39:01.127Z,98973.28
2022-11-09T02:41:30.247Z,98973.25
2022-11-09T02:43:56.872Z,98971.53
2022-11-09T02:46:33.167Z,98975.88
2022-11-09T02:49:00.718Z,98975.88
2022-11-09T02:51:27.396Z,98969.88
2022-11-09T02:53:54.172Z,98965.56
2022-11-09T02:56:20.681Z,98964.72
2022-11-09T02:58:47.335Z,98969.00
2022-11-09T03:01:14.028Z,98959.56
2022-11-09T03:03:40.974Z,98958.72
2022-11-09T03:06:07.555Z,98961.31
2022-11-09T03:08:34.135Z,98952.72
2022-11-09T03:11:00.964Z,98952.72
2022-11-09T03:13:27.514Z,98948.41
2022-11-09T03:15:54.054Z,98945.84
2022-11-09T03:18:20.568Z,98948.41
2022-11-09T03:20:47.068Z,98942.41
2022-11-09T03:23:13.701Z,98944.97
2022-11-09T03:25:40.234Z,98944.97
2022-11-09T03:28:07.976Z,98946.69
2022-11-09T03:30:35.083Z,98949.28
2022-11-09T03:33:10.073Z,98945.84
2022-11-09T03:35:38.163Z,98948.44
2022-11-09T03:38:04.766Z,98942.41
2022-11-09T03:40:31.719Z,98953.56
2022-11-09T03:42:58.707Z,98955.28
2022-11-09T03:45:25.531Z,98954.44
2022-11-09T03:47:52.177Z,98961.25
2022-11-09T03:50:18.825Z,98963.88
2022-11-09T03:52:46.518Z,98957.88
2022-11-09T03:55:14.149Z,98944.97
2022-11-09T03:57:40.938Z,98940.69
2022-11-09T04:00:09.177Z,98950.16
2022-11-09T04:02:35.683Z,98953.56
2022-11-09T04:05:02.174Z,98955.31
2022-11-09T04:07:28.657Z,98965.53
2022-11-09T04:09:55.200Z,98973.28
2022-11-09T04:12:21.958Z,98974.16
2022-11-09T04:14:48.466Z,98967.28
2022-11-09T04:17:14.969Z,98969.00
2022-11-09T04:19:41.491Z,98977.63
2022-11-09T04:22:08.330Z,98972.47
2022-11-09T04:24:35.113Z,98971.63
2022-11-09T04:27:01.670Z,98982.72
2022-11-09T04:29:28.135Z,98992.13
2022-11-09T04:31:54.633Z,98993.81
2022-11-09T04:34:21.203Z,98992.97
2022-11-09T04:36:47.679Z,98998.13
2022-11-09T04:39:14.344Z,98998.97
2022-11-09T04:41:41.324Z,99007.53
2022-11-09T04:44:07.940Z,99019.50
2022-11-09T04:46:34.450Z,99027.19
2022-11-09T04:49:00.950Z,99033.19
2022-11-09T04:51:27.498Z,99034.97
2022-11-09T04:53:54.078Z,99037.59
2022-11-09T04:56:20.842Z,99039.28
2022-11-09T04:58:47.300Z,99046.13
2022-11-09T05:01:14.568Z,99055.56
2022-11-09T05:03:42.357Z,99061.56
2022-11-09T05:06:28.095Z,99058.13
2022-11-09T05:08:55.773Z,99061.56
2022-11-09T05:11:23.350Z,99070.19
2022-11-09T05:13:51.521Z,99066.72
2022-11-09T05:16:19.560Z,99075.28
2022-11-09T05:18:46.571Z,99083.88
2022-11-09T05:21:13.635Z,99082.19
2022-11-09T05:23:58.988Z,99088.97
2022-11-09T05:26:41.453Z,99088.13
2022-11-09T05:29:10.434Z,99086.44
2022-11-09T05:31:37.958Z,99086.47
2022-11-09T05:34:05.633Z,99084.75
2022-11-09T05:36:33.639Z,99081.31
2022-11-09T05:39:00.701Z,99100.19
2022-11-09T05:41:27.580Z,99102.75
2022-11-09T05:43:54.184Z,99108.75
2022-11-09T05:46:20.964Z,99118.22
2022-11-09T05:48:47.436Z,99116.53
2022-11-09T05:51:15.957Z,99131.91
2022-11-09T05:53:46.354Z,99138.72
2022-11-09T05:56:15.718Z,99141.31
2022-11-09T05:58:42.837Z,99137.03
2022-11-09T06:01:14.788Z,99141.38
2022-11-09T06:03:44.654Z,99149.09
2022-11-09T06:06:13.543Z,99163.59
2022-11-09T06:08:40.271Z,99165.34
2022-11-09T06:11:11.425Z,99164.47
2022-11-09T06:13:38.487Z,99167.94
2022-11-09T06:16:06.205Z,99164.53
2022-11-09T06:18:34.095Z,99166.25
2022-11-09T06:21:03.324Z,99169.69
2022-11-09T06:23:30.628Z,99170.56
2022-11-09T06:25:58.964Z,99173.97
2022-11-09T06:28:26.173Z,99180.81
2022-11-09T06:30:53.387Z,99182.56
2022-11-09T06:33:20.226Z,99185.16
2022-11-09T06:35:50.913Z,99188.63
2022-11-09T06:38:21.549Z,99189.44
2022-11-09T06:40:52.014Z,99198.09
2022-11-09T06:43:19.205Z,99192.88
2022-11-09T06:45:46.014Z,99209.13
2022-11-09T06:48:12.567Z,99199.63
2022-11-09T06:50:39.098Z,99185.97
2022-11-09T06:53:07.893Z,99182.66
2022-11-09T06:55:36.219Z,99181.78
2022-11-09T06:58:07.937Z,99186.06
2022-11-09T07:00:34.774Z,99192.94
2022-11-09T07:03:01.519Z,99194.66
2022-11-09T07:05:28.105Z,99204.13
2022-11-09T07:07:54.783Z,99201.56
2022-11-09T07:10:21.495Z,99212.75
2022-11-09T07:12:48.740Z,99226.50
2022-11-09T07:15:15.267Z,99236.63
2022-11-09T07:17:41.917Z,99238.44
2022-11-09T07:20:09.853Z,99230.72
2022-11-09T07:22:39.957Z,99236.81
2022-11-09T07:25:08.109Z,99217.94
2022-11-09T07:27:35.561Z,99234.25
2022-11-09T07:30:02.356Z,99244.56
2022-11-09T07:32:54.189Z,99253.19
2022-11-09T07:35:15.454Z,99268.69
2022-11-09T07:37:41.936Z,99281.63
2022-11-09T07:40:09.172Z,99279.94
2022-11-09T07:42:35.663Z,99291.13
2022-11-09T07:45:02.153Z,99294.59
2022-11-09T07:47:28.658Z,99309.25
2022-11-09T07:49:55.217Z,99311.81
2022-11-09T07:52:21.800Z,99319.50
2022-11-09T07:54:51.935Z,99318.69
2022-11-09T07:57:18.745Z,99320.44
2022-11-09T07:59:45.307Z,99323.91
2022-11-09T08:02:12.112Z,99336.81
2022-11-09T08:04:39.227Z,99343.66
2022-11-09T08:07:05.816Z,99347.09
2022-11-09T08:09:32.489Z,99347.94
2022-11-09T08:11:59.021Z,99346.25
2022-11-09T08:14:25.611Z,99343.66
2022-11-09T08:16:53.182Z,99353.06
2022-11-09T08:19:19.690Z,99352.22
2022-11-09T08:21:46.261Z,99348.81
2022-11-09T08:24:12.812Z,99364.28
2022-11-09T08:26:39.353Z,99378.13
2022-11-09T08:29:05.856Z,99392.72
2022-11-09T08:31:32.364Z,99410.78
2022-11-09T08:33:58.921Z,99418.56
2022-11-09T08:36:27.831Z,99417.69
2022-11-09T08:38:54.577Z,99444.47
2022-11-09T08:41:21.172Z,99480.41
2022-11-09T08:43:47.687Z,99482.09
2022-11-09T08:46:14.257Z,99497.53
2022-11-09T08:48:40.776Z,99505.41
2022-11-09T08:51:07.308Z,99518.41
2022-11-09T08:53:33.879Z,99535.66
2022-11-09T08:56:00.372Z,99551.03
2022-11-09T08:58:26.921Z,99561.44
2022-11-09T09:00:53.797Z,99566.53
2022-11-09T09:03:20.433Z,99578.53
2022-11-09T09:05:47.013Z,99575.13
2022-11-09T09:08:15.722Z,99582.91
2022-11-09T09:10:43.025Z,99585.53
2022-11-09T09:13:10.362Z,99598.50
2022-11-09T09:15:37.150Z,99606.13
2022-11-09T09:18:04.462Z,99597.53
2022-11-09T09:20:31.216Z,99596.78
2022-11-09T09:22:59.807Z,99613.31
2022-11-09T09:25:27.487Z,99628.09
2022-11-09T09:27:54.082Z,99634.13
2022-11-09T09:30:20.557Z,99650.59
2022-11-09T09:32:47.118Z,99655.78
2022-11-09T09:35:13.799Z,99662.72
2022-11-09T09:37:40.375Z,99667.06
2022-11-09T09:40:07.724Z,99672.28
2022-11-09T09:42:44.130Z,99685.22
2022-11-09T09:45:15.146Z,99693.00
2022-11-09T09:47:53.309Z,99700.66
2022-11-09T09:50:28.909Z,99700.69
2022-11-09T09:53:22.660Z,99697.25
2022-11-09T09:55:54.857Z,99694.69
2022-11-09T09:58:26.427Z,99695.59
2022-11-09T10:00:57.837Z,99699.91
2022-11-09T10:03:24.451Z,99716.31
2022-11-09T10:06:06.031Z,99711.19
2022-11-09T10:09:01.432Z,99723.34
2022-11-09T10:12:08.980Z,99734.56
2022-11-09T10:14:49.958Z,99744.13
2022-11-09T10:17:42.523Z,99739.81
2022-11-09T10:20:33.912Z,99744.16
2022-11-09T10:23:21.914Z,99751.03
2022-11-09T10:26:14.454Z,99754.50
2022-11-09T10:29:13.961Z,99756.28
2022-11-09T10:31:34.748Z,99767.50
2022-11-09T10:34:33.092Z,99781.31
2022-11-09T10:37:18.313Z,99775.31
2022-11-09T10:39:51.512Z,99788.25
2022-11-09T10:42:18.025Z,99799.50
2022-11-09T10:44:44.539Z,99801.22
2022-11-09T10:47:14.259Z,99806.41
2022-11-09T10:49:41.067Z,99807.28
2022-11-09T10:52:32.307Z,99817.63
2022-11-09T10:55:37.585Z,99830.59
2022-11-09T10:58:23.222Z,99825.41
2022-11-09T11:01:04.051Z,99828.84
2022-11-09T11:03:35.562Z,99821.06
2022-11-09T11:06:22.451Z,99833.19
2022-11-09T11:08:51.454Z,99835.78
2022-11-09T11:11:35.012Z,99840.09
2022-11-09T11:14:17.168Z,99845.28
2022-11-09T11:16:50.688Z,99855.63
2022-11-09T11:19:34.916Z,99851.31
2022-11-09T11:22:19.702Z,99850.47
2022-11-09T11:24:51.581Z,99858.22
2022-11-09T11:27:31.274Z,99861.69
2022-11-09T11:30:14.405Z,99859.97
2022-11-09T11:32:45.494Z,99858.22
2022-11-09T11:35:34.912Z,99875.50
2022-11-09T11:38:27.487Z,99864.28
2022-11-09T11:41:06.013Z,99864.28
2022-11-09T11:44:17.031Z,99866.88
2022-11-09T11:46:47.460Z,99872.06
2022-11-09T11:49:33.680Z,99863.41
2022-11-09T11:52:13.553Z,99871.19
2022-11-09T11:54:43.201Z,99868.59
2022-11-09T11:57:40.060Z,99874.63
2022-11-09T12:00:16.193Z,99878.09
2022-11-09T12:03:05.988Z,99884.09
2022-11-09T12:06:10.091Z,99888.44
2022-11-09T12:09:04.799Z,99889.28
2022-11-09T12:11:49.715Z,99896.19
2022-11-09T12:14:26.346Z,99903.06
2022-11-09T12:17:07.500Z,99911.66
2022-11-09T12:19:59.760Z,99906.47
2022-11-09T12:22:41.210Z,99915.88
2022-11-09T12:25:40.599Z,99930.34
2022-11-09T12:28:37.345Z,99924.09
2022-11-09T12:31:22.207Z,99924.84
2022-11-09T12:34:02.398Z,99912.78
2022-11-09T12:37:01.359Z,99897.16
2022-11-09T12:39:37.593Z,99880.00
2022-11-09T12:42:11.097Z,99867.72
2022-11-09T12:44:46.880Z,99852.22
2022-11-09T12:47:17.278Z,99843.56
2022-11-09T12:49:46.119Z,99843.56
2022-11-09T12:52:15.909Z,99832.38
2022-11-09T12:54:51.501Z,99839.28
2022-11-09T12:57:27.789Z,99834.97
2022-11-09T12:59:59.074Z,99829.78
2022-11-09T13:02:35.823Z,99827.22
2022-11-09T13:05:08.449Z,99821.13
2022-11-09T13:07:53.400Z,99822.91
2022-11-09T13:10:24.951Z,99819.53
2022-11-09T13:13:05.966Z,99798.84
2022-11-09T13:15:34.772Z,99800.56
2022-11-09T13:18:21.596Z,99797.97
2022-11-09T13:20:57.816Z,99788.56
2022-11-09T13:24:00.816Z,99783.34
2022-11-09T13:26:31.696Z,99773.03
2022-11-09T13:29:29.153Z,99758.38
2022-11-09T13:32:11.009Z,99725.53
2022-11-09T13:34:48.196Z,99697.03
2022-11-09T13:37:42.820Z,99678.94
2022-11-09T13:40:31.205Z,99675.53
2022-11-09T13:43:12.717Z,99675.44
2022-11-09T13:45:51.185Z,99665.09
2022-11-09T13:48:39.294Z,99650.41
2022-11-09T13:51:20.965Z,99639.19
2022-11-09T13:53:52.959Z,99605.56
2022-11-09T13:56:37.554Z,99585.78
2022-11-09T13:59:17.215Z,99568.56
2022-11-09T14:01:53.956Z,99565.13
2022-11-09T14:04:41.282Z,99547.94
2022-11-09T14:07:15.790Z,99549.53
2022-11-09T14:10:03.627Z,99539.19
2022-11-09T14:13:05.448Z,99543.47
2022-11-09T14:15:44.438Z,99547.75
2022-11-09T14:18:32.767Z,99533.94
2022-11-09T14:21:16.430Z,99527.88
2022-11-09T14:23:43.323Z,99512.41
2022-11-09T14:26:17.472Z,99526.03
2022-11-09T14:28:44.075Z,99515.81
2022-11-09T14:31:25.390Z,99518.31
2022-11-09T14:34:06.081Z,99521.84
2022-11-09T14:36:35.065Z,99525.22
2022-11-09T14:39:05.115Z,99541.59
2022-11-09T14:41:31.905Z,99557.97
2022-11-09T14:44:00.742Z,99569.09
2022-11-09T14:46:30.678Z,99582.88
2022-11-09T14:49:01.629Z,99606.97
2022-11-09T14:51:38.617Z,99607.91
2022-11-09T14:54:16.783Z,99615.72
2022-11-09T14:56:44.232Z,99643.88
2022-11-09T14:59:17.425Z,99649.78
2022-11-09T15:02:17.545Z,99647.28
2022-11-09T15:05:00.704Z,99657.44
2022-11-09T15:07:34.050Z,99649.53
2022-11-09T15:10:03.961Z,99651.16
2022-11-09T15:12:31.460Z,99663.13
2022-11-09T15:15:05.764Z,99681.88
2022-11-09T15:17:37.844Z,99692.00
2022-11-09T15:20:26.193Z,99734.81
2022-11-09T15:22:58.154Z,99735.69
2022-11-09T15:25:35.767Z,99731.22
2022-11-09T15:28:14.371Z,99731.03
2022-11-09T15:30:45.696Z,99725.94
2022-11-09T15:33:21.587Z,99732.09
2022-11-09T15:36:26.197Z,99744.78
2022-11-09T15:38:58.064Z,99741.47
2022-11-09T15:41:25.835Z,99742.47
2022-11-09T15:43:52.541Z,99742.44
2022-11-09T15:46:28.691Z,99740.59
2022-11-09T15:48:59.188Z,99732.94
2022-11-09T15:51:25.904Z,99742.38
2022-11-09T15:53:52.433Z,99741.22
2022-11-09T15:56:23.502Z,99737.66
2022-11-09T15:58:52.488Z,99718.97
2022-11-09T16:01:19.516Z,99719.81
2022-11-09T16:03:46.159Z,99717.59
2022-11-09T16:06:18.998Z,99730.47
2022-11-09T16:08:50.378Z,99737.31
2022-11-09T16:11:17.584Z,99742.38
2022-11-09T16:13:44.100Z,99744.78
2022-11-09T16:16:13.478Z,99738.75
2022-11-09T16:18:40.156Z,99743.75
2022-11-09T16:21:12.328Z,99728.31
2022-11-09T16:23:39.036Z,99739.44
2022-11-09T16:26:11.414Z,99743.41
2022-11-09T16:28:40.111Z,99741.09
2022-11-09T16:31:07.557Z,99729.75
2022-11-09T16:33:34.371Z,99730.56
2022-11-09T16:36:05.429Z,99723.75
2022-11-09T16:38:39.151Z,99727.91
2022-11-09T16:41:06.460Z,99734.84
2022-11-09T16:43:35.886Z,99724.50
2022-11-09T16:46:02.502Z,99730.44
2022-11-09T16:48:33.068Z,99734.75
2022-11-09T16:50:59.793Z,99735.69
2022-11-09T16:53:27.224Z,99730.47
2022-11-09T16:55:54.107Z,99734.75
2022-11-09T16:58:21.161Z,99737.44
2022-11-09T17:03:37.630Z,99747.78
2022-11-09T17:06:04.427Z,99748.59
2022-11-09T17:08:31.021Z,99752.25
2022-11-09T17:10:57.599Z,99754.78
2022-11-09T17:13:24.183Z,99762.50
2022-11-09T17:15:53.277Z,99772.81
2022-11-09T17:18:20.210Z,99772.84
2022-11-09T17:20:49.670Z,99765.97
2022-11-09T17:23:19.006Z,99773.72
2022-11-09T17:25:59.669Z,99779.69
2022-11-09T17:28:27.739Z,99782.34
2022-11-09T17:30:54.668Z,99793.38
2022-11-09T17:33:22.177Z,99807.09
2022-11-09T17:35:48.733Z,99811.31
2022-11-09T17:38:15.823Z,99817.31
2022-11-09T17:40:42.385Z,99818.22
2022-11-09T17:43:09.054Z,99836.25
2022-11-09T17:45:36.598Z,99842.28
2022-11-09T17:48:04.486Z,99859.34
2022-11-09T17:50:31.785Z,99879.19
2022-11-09T17:52:58.437Z,99904.75
2022-11-09T17:55:24.973Z,99934.00
2022-11-09T17:57:51.511Z,99952.06
2022-11-09T18:00:18.795Z,99963.94
2022-11-09T18:02:45.577Z,99980.28
2022-11-09T18:05:13.986Z,99977.06
2022-11-09T18:07:40.491Z,99977.00
2022-11-09T18:10:07.272Z,99981.34
2022-11-09T18:12:33.755Z,99968.53
2022-11-09T18:15:00.519Z,99974.44
2022-11-09T18:17:26.986Z,99976.84
2022-11-09T18:19:53.555Z,99973.56
2022-11-09T18:22:20.301Z,99982.00
2022-11-09T18:24:47.014Z,99985.34
2022-11-09T18:27:13.669Z,99992.13
2022-11-09T18:29:40.343Z,99997.34
2022-11-09T18:32:06.810Z,100002.44
2022-11-09T18:34:33.298Z,100011.88
2022-11-09T18:36:59.862Z,100011.13
2022-11-09T18:39:26.668Z,100002.34
2022-11-09T18:41:54.591Z,99999.09
2022-11-09T18:44:21.193Z,100002.38
2022-11-09T18:46:47.848Z,99998.97
2022-11-09T18:49:14.646Z,99994.72
2022-11-09T18:51:43.339Z,99992.09
2022-11-09T18:54:09.909Z,99988.63
2022-11-09T18:56:36.457Z,99978.22
2022-11-09T18:59:04.088Z,99969.75
2022-11-09T19:01:30.628Z,99974.03
2022-11-09T19:04:00.370Z,99969.72
2022-11-09T19:06:27.153Z,99972.34
2022-11-09T19:09:12.289Z,99973.94
2022-11-09T19:11:38.938Z,99980.03
2022-11-09T19:14:05.610Z,99990.38
2022-11-09T19:16:32.598Z,99994.66
2022-11-09T19:18:59.164Z,100004.69
2022-11-09T19:21:27.034Z,100002.22
2022-11-09T19:23:54.239Z,100005.53
2022-11-09T19:26:23.575Z,100006.22
2022-11-09T19:28:50.147Z,100010.44
2022-11-09T19:31:20.094Z,99997.50
2022-11-09T19:33:46.883Z,100006.22
2022-11-09T19:36:29.676Z,100006.88
2022-11-09T19:38:57.382Z,100002.72
2022-11-09T19:41:25.293Z,100011.91
2022-11-09T19:43:54.624Z,100014.50
2022-11-09T19:46:21.847Z,100014.75
2022-11-09T19:48:48.433Z,100021.34
2022-11-09T19:51:16.680Z,100019.78
2022-11-09T19:53:52.114Z,100028.47
2022-11-09T19:56:19.550Z,100023.44
2022-11-09T19:58:50.537Z,100030.22
2022-11-09T20:01:18.293Z,100037.19
2022-11-09T20:03:49.293Z,100049.22
2022-11-09T20:06:16.856Z,100050.97
2022-11-09T20:08:43.713Z,100059.69
2022-11-09T20:11:12.833Z,100069.84
2022-11-09T20:13:40.553Z,100083.34
2022-11-09T20:16:09.656Z,100084.06
2022-11-09T20:18:39.954Z,100089.25
2022-11-09T20:21:09.069Z,100091.78
2022-11-09T20:23:35.563Z,100086.81
2022-11-09T20:26:10.113Z,100098.66
2022-11-09T20:28:36.985Z,100095.47
2022-11-09T20:31:11.477Z,100105.84
2022-11-09T20:33:38.840Z,100113.38
2022-11-09T20:36:06.904Z,100116.75
2022-11-09T20:38:33.601Z,100125.13
2022-11-09T20:41:02.493Z,100123.69
2022-11-09T20:43:29.697Z,100107.44
2022-11-09T20:45:57.259Z,100123.13
2022-11-09T20:48:52.121Z,100142.31
2022-11-09T20:51:13.297Z,100143.09
2022-11-09T20:53:39.850Z,100133.78
2022-11-09T20:56:06.728Z,100135.78
2022-11-09T20:58:33.330Z,100137.47
2022-11-09T21:01:07.944Z,100146.53
2022-11-09T21:03:35.046Z,100153.38
2022-11-09T21:06:03.832Z,100150.72
2022-11-09T21:08:30.441Z,100151.53
2022-11-09T21:10:57.186Z,100139.94
2022-11-09T21:13:23.678Z,100149.06
2022-11-09T21:15:50.235Z,100149.88
2022-11-09T21:18:16.873Z,100143.84
2022-11-09T21:20:43.374Z,100149.16
2022-11-09T21:23:14.056Z,100148.31
2022-11-09T21:26:01.260Z,100154.44
2022-11-09T21:28:47.534Z,100154.44
2022-11-09T21:31:14.411Z,100159.53
2022-11-09T21:33:44.068Z,100157.75
2022-11-09T21:36:13.161Z,100156.75
2022-11-09T21:38:40.064Z,100154.06
2022-11-09T21:41:29.539Z,100154.81
2022-11-09T21:43:56.876Z,100156.34
2022-11-09T21:46:24.671Z,100146.06
2022-11-09T21:48:51.479Z,100154.81
2022-11-09T21:51:21.661Z,100144.34
2022-11-09T21:53:51.576Z,100150.44
2022-11-09T21:56:18.299Z,100147.38
2022-11-09T21:58:48.938Z,100148.19
2022-11-09T22:01:18.063Z,100133.47
2022-11-09T22:03:46.377Z,100129.88
2022-11-09T22:06:15.020Z,100129.00
2022-11-09T22:08:42.549Z,100119.78
2022-11-09T22:11:17.385Z,100123.16
2022-11-09T22:14:02.765Z,100120.41
2022-11-09T22:16:32.999Z,100127.19
2022-11-09T22:19:20.632Z,100127.91
2022-11-09T22:21:47.169Z,100126.13
2022-11-09T22:24:13.734Z,100126.84
2022-11-09T22:26:40.286Z,100124.16
2022-11-09T22:29:06.840Z,100114.84
2022-11-09T22:31:33.331Z,100112.34
2022-11-09T22:33:59.821Z,100119.19
2022-11-09T22:36:26.421Z,100120.94
2022-11-09T22:38:52.950Z,100119.03
2022-11-09T22:41:19.939Z,100126.72
2022-11-09T22:43:46.746Z,100131.84
2022-11-09T22:46:15.468Z,100123.22
2022-11-09T22:48:43.762Z,100129.06
2022-11-09T22:51:16.267Z,100121.38
2022-11-09T22:53:43.060Z,100121.41
2022-11-09T22:56:11.082Z,100123.09
2022-11-09T22:58:37.621Z,100126.44
2022-11-09T23:02:00.617Z,100124.84
2022-11-09T23:04:27.299Z,100122.19
2022-11-09T23:06:54.071Z,100126.47
2022-11-09T23:09:20.763Z,100124.56
2022-11-09T23:11:47.577Z,100130.50
2022-11-09T23:14:14.174Z,100130.47
2022-11-09T23:16:40.684Z,100127.09
2022-11-09T23:19:07.156Z,100134.03
2022-11-09T23:21:36.128Z,100135.56
2022-11-09T23:24:05.680Z,100133.00
2022-11-09T23:26:33.785Z,100131.34
2022-11-09T23:29:00.421Z,100131.34
2022-11-09T23:31:27.669Z,100141.63
2022-11-09T23:33:56.526Z,100140.38
2022-11-09T23:36:24.429Z,100142.00
2022-11-09T23:38:51.864Z,100135.91
2022-11-09T23:41:19.609Z,100137.72
2022-11-09T23:43:49.242Z,100130.97
2022-11-09T23:46:17.020Z,100137.75
2022-11-09T23:48:43.670Z,100140.22
2022-11-09T23:51:10.672Z,100147.47
2022-11-09T23:53:37.819Z,100148.13
2022-11-09T23:56:09.692Z,100154.22
2022-11-09T23:58:37.156Z,100148.06
